Terminal Aerodrome Forecast
Issued by NWS

Home | Current Version | Previous Version | Text Only | Print | Product List | Glossary On
Versions: 1 2 3 4 5 6 7 8 9 10 11 12 13 14 15 16 17 18
000
FTUS43 KBIS 241500 AAA
TAFJMS
TAF AMD
KJMS 241501Z 2415/2512 14007KT P6SM VCTS SCT050CB BKN090 OVC150
      TEMPO 2415/2416 VRB25G40KT 4SM TSRA BKN035CB OVC050
     FM241900 14018KT P6SM SCT090 BKN250
     FM250200 13012KT P6SM VCTS SCT080CB BKN120=

USA.gov is the U.S. government's official web portal to all federal, state and local government web resources and services.